createdAt,value
2023-03-24T18:33:29.595Z,1.30
2023-03-24T18:34:29.505Z,2.50
2023-03-24T18:35:29.476Z,2.60
2023-03-24T18:36:29.416Z,2.00
2023-03-24T18:37:29.343Z,2.20
2023-03-24T18:38:29.293Z,3.40
2023-03-24T18:39:29.245Z,4.10
2023-03-24T18:40:29.202Z,4.70
2023-03-24T18:41:29.153Z,3.40
2023-03-24T18:42:29.102Z,5.20
2023-03-24T18:43:29.050Z,3.20
2023-03-24T18:44:29.002Z,3.90
2023-03-24T18:45:29.085Z,3.40
2023-03-24T18:46:29.164Z,3.30
2023-03-24T18:47:28.898Z,4.50
2023-03-24T18:48:28.821Z,5.70
2023-03-24T18:49:28.799Z,6.60
2023-03-24T18:50:28.729Z,5.90
2023-03-24T18:51:28.686Z,5.40
2023-03-24T18:52:28.656Z,4.20
2023-03-24T18:53:28.602Z,5.20
2023-03-24T18:54:28.550Z,3.20
2023-03-24T18:55:28.503Z,5.40
2023-03-24T18:56:28.453Z,3.30
2023-03-24T18:57:28.410Z,6.40
2023-03-24T18:58:28.372Z,5.30
2023-03-24T18:59:28.327Z,3.00
2023-03-24T19:00:28.274Z,5.90
2023-03-24T19:01:28.292Z,3.40
2023-03-24T19:02:28.366Z,4.20
2023-03-24T19:03:28.200Z,5.60
2023-03-24T19:04:28.099Z,3.50
2023-03-24T19:05:28.082Z,3.50
2023-03-24T19:06:28.010Z,5.00
2023-03-24T19:07:27.981Z,4.20
2023-03-24T19:08:27.922Z,4.30
2023-03-24T19:09:27.888Z,4.10
2023-03-24T19:10:27.840Z,3.40
2023-03-24T19:11:27.794Z,4.80
2023-03-24T19:12:27.750Z,6.30
2023-03-24T19:13:27.704Z,4.40
2023-03-24T19:14:27.659Z,6.30
2023-03-24T19:15:27.619Z,6.30
2023-03-24T19:16:27.616Z,5.80
2023-03-24T19:17:27.546Z,6.10
2023-03-24T19:18:27.496Z,4.40
2023-03-24T19:19:27.439Z,4.70
2023-03-24T19:20:27.392Z,4.00
2023-03-24T19:21:27.375Z,4.20
2023-03-24T19:22:27.330Z,3.60
2023-03-24T19:23:27.278Z,4.60
2023-03-24T19:24:27.226Z,5.70
2023-03-24T19:25:27.173Z,3.20
2023-03-24T19:26:27.129Z,3.10
2023-03-24T19:27:27.085Z,4.80
2023-03-24T19:28:27.061Z,3.80
2023-03-24T19:29:27.005Z,3.40
2023-03-24T19:30:26.953Z,4.00
2023-03-24T19:31:26.946Z,3.30
2023-03-24T19:32:26.955Z,2.90
2023-03-24T19:33:26.821Z,5.00
2023-03-24T19:34:26.789Z,4.70
2023-03-24T19:35:26.762Z,3.10
2023-03-24T19:36:26.686Z,3.00
2023-03-24T19:37:26.670Z,4.20
2023-03-24T19:38:26.601Z,4.10
2023-03-24T19:39:26.555Z,2.80
2023-03-24T19:40:26.515Z,2.10
2023-03-24T19:41:26.477Z,5.80
2023-03-24T19:42:26.433Z,4.60
2023-03-24T19:43:26.384Z,3.90
2023-03-24T19:44:26.334Z,4.00
2023-03-24T19:45:26.296Z,3.70
2023-03-24T19:46:26.263Z,3.60
2023-03-24T19:47:26.210Z,2.50
2023-03-24T19:48:26.158Z,3.80
2023-03-24T19:49:26.119Z,3.10
2023-03-24T19:50:26.071Z,4.30
2023-03-24T19:51:26.030Z,3.20
2023-03-24T19:52:25.986Z,2.70
2023-03-24T19:53:25.990Z,4.90
2023-03-24T19:54:26.321Z,6.10
2023-03-24T19:55:26.018Z,2.90
2023-03-24T19:56:25.806Z,2.90
2023-03-24T19:57:25.764Z,3.80
2023-03-24T19:58:25.761Z,2.20
2023-03-24T19:59:25.680Z,5.00
2023-03-24T20:00:25.632Z,3.30
2023-03-24T20:01:25.685Z,4.40
2023-03-24T20:02:25.628Z,4.60
2023-03-24T20:03:25.633Z,5.20
2023-03-24T20:04:25.454Z,4.40
2023-03-24T20:05:25.417Z,3.60
2023-03-24T20:06:25.369Z,4.20
2023-03-24T20:07:25.320Z,2.90
2023-03-24T20:08:25.281Z,5.20
2023-03-24T20:09:25.269Z,3.10
2023-03-24T20:10:25.196Z,5.20
2023-03-24T20:11:25.151Z,4.30
2023-03-24T20:12:25.103Z,2.70
2023-03-24T20:13:25.061Z,3.50
2023-03-24T20:14:25.015Z,3.70
2023-03-24T20:15:24.972Z,6.60
2023-03-24T20:16:24.962Z,4.10
2023-03-24T20:17:24.890Z,3.80
2023-03-24T20:18:24.836Z,6.20
2023-03-24T20:19:24.794Z,3.60
2023-03-24T20:20:24.749Z,3.50
2023-03-24T20:21:24.705Z,3.50
2023-03-24T20:22:24.678Z,3.50
2023-03-24T20:23:24.627Z,2.30
2023-03-24T20:24:24.598Z,4.10
2023-03-24T20:25:24.552Z,4.40
2023-03-24T20:26:25.701Z,3.90
2023-03-24T20:27:24.440Z,2.60
2023-03-24T20:28:24.396Z,3.20
2023-03-24T20:29:24.352Z,3.40
2023-03-24T20:30:24.306Z,4.80
2023-03-24T20:31:24.289Z,4.30
2023-03-24T20:32:24.218Z,3.00
2023-03-24T20:33:25.187Z,2.50
2023-03-24T20:34:24.133Z,2.20
2023-03-24T20:35:24.102Z,2.70
2023-03-24T20:36:24.051Z,2.90
2023-03-24T20:37:24.001Z,2.50
2023-03-24T20:38:23.963Z,3.00
2023-03-24T20:39:23.929Z,1.40
2023-03-24T20:40:23.879Z,2.30
2023-03-24T20:41:23.898Z,3.10
2023-03-24T20:42:23.781Z,2.30
2023-03-24T20:43:23.747Z,1.50
2023-03-24T20:44:23.692Z,2.20
2023-03-24T20:45:23.652Z,1.30
2023-03-24T20:46:24.659Z,1.70
2023-03-24T20:47:24.212Z,2.10
2023-03-24T20:48:23.531Z,1.60
2023-03-24T20:49:23.489Z,1.60
2023-03-24T20:50:23.514Z,2.40
2023-03-24T20:51:26.412Z,1.60
2023-03-24T20:52:23.340Z,1.00
2023-03-24T20:53:23.296Z,1.50
2023-03-24T20:54:23.462Z,1.50
2023-03-24T20:55:23.226Z,1.30
2023-03-24T20:56:23.171Z,1.10
2023-03-24T20:57:23.140Z,1.70
2023-03-24T20:58:23.068Z,1.10
2023-03-24T20:59:23.056Z,0.90
2023-03-24T21:00:22.989Z,1.60
2023-03-24T21:01:23.047Z,1.10
2023-03-24T21:02:22.967Z,3.70
2023-03-24T21:03:22.861Z,1.70
2023-03-24T21:04:23.719Z,1.10
2023-03-24T21:05:22.848Z,2.60
2023-03-24T21:07:22.673Z,2.50
2023-03-24T21:08:22.638Z,3.30
2023-03-24T21:09:22.593Z,1.50
2023-03-24T21:10:22.540Z,2.10
2023-03-24T21:11:22.700Z,2.00
2023-03-24T21:12:22.540Z,2.40
2023-03-24T21:13:22.427Z,3.30
2023-03-24T21:14:22.362Z,1.90
2023-03-24T21:15:22.391Z,3.40
2023-03-24T21:16:22.357Z,1.30
2023-03-24T21:17:22.289Z,3.20
2023-03-24T21:18:22.185Z,1.40
2023-03-24T21:19:22.157Z,3.20
2023-03-24T21:20:22.097Z,1.70
2023-03-24T21:21:22.056Z,2.60
2023-03-24T21:22:23.940Z,2.30
2023-03-24T21:23:22.068Z,2.10
2023-03-24T21:24:21.931Z,2.10
2023-03-24T21:25:21.979Z,2.80
2023-03-24T21:26:21.849Z,2.60
2023-03-24T21:27:22.338Z,1.80
2023-03-24T21:28:21.786Z,1.80
2023-03-24T21:30:21.764Z,1.80
2023-03-24T21:31:21.755Z,2.10
2023-03-24T21:32:24.190Z,3.30
2023-03-24T21:33:21.527Z,2.00
2023-03-24T21:34:21.484Z,1.60
2023-03-24T21:35:21.434Z,2.20
2023-03-24T21:36:21.459Z,3.40
2023-03-24T21:37:21.380Z,4.10
2023-03-24T21:38:21.303Z,3.20
2023-03-24T21:39:21.272Z,1.90
2023-03-24T21:40:21.218Z,1.40
2023-03-24T21:41:21.171Z,2.40
2023-03-24T21:42:21.122Z,2.10
2023-03-24T21:43:21.111Z,2.10
2023-03-24T21:44:21.058Z,1.90
2023-03-24T21:45:21.030Z,2.60
2023-03-24T21:46:20.998Z,2.60
2023-03-24T21:47:20.920Z,2.30
2023-03-24T21:48:20.900Z,2.80
2023-03-24T21:49:20.814Z,2.90
2023-03-24T21:50:20.772Z,2.60
2023-03-24T21:51:20.723Z,1.90
2023-03-24T21:52:20.730Z,1.40
2023-03-24T21:53:20.638Z,2.70
2023-03-24T21:54:20.590Z,2.40
2023-03-24T21:55:20.565Z,2.30
2023-03-24T21:56:20.516Z,2.50
2023-03-24T21:57:20.458Z,1.30
2023-03-24T21:58:20.423Z,3.00
2023-03-24T21:59:20.368Z,2.70
2023-03-24T22:00:20.322Z,3.10
2023-03-24T22:01:20.300Z,2.90
2023-03-24T22:02:21.755Z,3.10
2023-03-24T22:03:20.219Z,2.90
2023-03-24T22:04:20.169Z,2.40
2023-03-24T22:05:20.123Z,2.60
2023-03-24T22:06:20.067Z,2.20
2023-03-24T22:07:20.010Z,3.30
2023-03-24T22:08:19.981Z,1.40
2023-03-24T22:09:19.922Z,2.40
2023-03-24T22:10:19.895Z,2.00
2023-03-24T22:11:19.850Z,1.70
2023-03-24T22:12:19.808Z,2.80
2023-03-24T22:13:19.742Z,2.60
2023-03-24T22:14:19.702Z,2.10
2023-03-24T22:15:19.681Z,2.30
2023-03-24T22:16:19.608Z,2.00
2023-03-24T22:17:19.815Z,2.00
2023-03-24T22:18:19.548Z,1.50
2023-03-24T22:19:19.493Z,1.20
2023-03-24T22:20:19.430Z,1.70
2023-03-24T22:21:19.713Z,1.60
2023-03-24T22:22:19.343Z,2.40
2023-03-24T22:23:19.326Z,2.80
2023-03-24T22:24:19.262Z,1.60
2023-03-24T22:25:19.215Z,1.40
2023-03-24T22:26:19.165Z,2.40
2023-03-24T22:27:19.130Z,1.60
2023-03-24T22:28:19.076Z,2.00
2023-03-24T22:29:19.038Z,1.70
2023-03-24T22:30:18.984Z,1.90
2023-03-24T22:31:18.948Z,2.30
2023-03-24T22:32:18.959Z,1.40
2023-03-24T22:33:18.904Z,1.20
2023-03-24T22:34:18.828Z,0.90
2023-03-24T22:35:18.787Z,2.20
2023-03-24T22:36:18.744Z,1.50
2023-03-24T22:37:18.676Z,1.70
2023-03-24T22:38:18.627Z,1.30
2023-03-24T22:39:18.591Z,1.80
2023-03-24T22:40:18.538Z,1.20
2023-03-24T22:41:18.820Z,1.20
2023-03-24T22:42:18.472Z,2.10
2023-03-24T22:43:18.403Z,2.60
2023-03-24T22:44:18.364Z,1.40
2023-03-24T22:45:18.360Z,3.30
2023-03-24T22:46:18.291Z,2.20
2023-03-24T22:47:18.227Z,1.70
2023-03-24T22:48:18.183Z,1.70
2023-03-24T22:49:18.135Z,1.60
2023-03-24T22:50:18.114Z,2.70
2023-03-24T22:52:18.012Z,2.50
2023-03-24T22:53:17.975Z,1.30
2023-03-24T22:54:17.914Z,1.60
2023-03-24T22:55:17.870Z,2.50
2023-03-24T22:56:17.822Z,2.60
2023-03-24T22:57:17.787Z,2.70
2023-03-24T22:58:17.735Z,2.70
2023-03-24T22:59:17.692Z,2.40
2023-03-24T23:00:17.645Z,2.00
2023-03-24T23:01:17.616Z,3.70
2023-03-24T23:02:17.595Z,5.40
2023-03-24T23:03:17.521Z,1.50
2023-03-24T23:04:17.467Z,2.20
2023-03-24T23:05:17.510Z,1.20
2023-03-24T23:06:17.398Z,3.40
2023-03-24T23:07:17.336Z,1.60
2023-03-24T23:08:17.303Z,2.30
2023-03-24T23:09:17.572Z,1.80
2023-03-24T23:10:17.198Z,3.30
2023-03-24T23:11:17.161Z,2.00
2023-03-24T23:12:17.108Z,3.10
2023-03-24T23:13:17.264Z,2.20
2023-03-24T23:14:17.020Z,1.90
2023-03-24T23:15:16.978Z,2.30
2023-03-24T23:16:16.978Z,3.30
2023-03-24T23:17:16.886Z,2.70
